Terminal Aerodrome Forecast
Issued by NWS

Home | Current Version | Previous Version | Text Only | Print | Product List | Glossary On
Versions: 1 2 3 4 5 6 7 8 9 10 11 12 13 14 15 16 17 18 19 20 21 22 23 24 25 26
000
FTUS43 KPAH 212300
TAFOWB
TAF
KOWB 212329Z 2200/2224 11008KT P6SM BKN045
     FM220400 15006KT P6SM -SHRA OVC035
     FM221000 17007KT P6SM SCT025 OVC035
     FM221500 18011G16KT P6SM SCT030 BKN050=

USA.gov is the U.S. government's official web portal to all federal, state and local government web resources and services.